Terminal Aerodrome Forecast
Issued by NWS Memphis, TN

Home | Current Version | Previous Version | Text Only | Print | Product List | Glossary On
Versions: 1 2 3 4 5 6 7 8 9 10 11 12 13 14 15 16
000
FTUS44 KMEG 251121
TAFMKL
TAF
KMKL 251121Z 2512/2612 22010KT P6SM SCT100 BKN250
     FM251600 23012G18KT P6SM VCSH SCT030 OVC050
      TEMPO 2517/2521 -SHRA BKN030
     FM252100 26010G16KT P6SM -SHRA BKN030 OVC050
     FM260400 30014G22KT P6SM VCSH OVC025=

USA.gov is the U.S. government's official web portal to all federal, state and local government web resources and services.